sensor_id;sensor_type;location;lat;lon;timestamp;temperature;humidity
43884;DHT22;29544;52.018;5.810;2022-09-29T00:01:09;18.50;56.80
43884;DHT22;29544;52.018;5.810;2022-09-29T00:03:36;18.50;56.90
43884;DHT22;29544;52.018;5.810;2022-09-29T00:06:02;18.50;56.90
43884;DHT22;29544;52.018;5.810;2022-09-29T00:08:29;18.40;56.90
43884;DHT22;29544;52.018;5.810;2022-09-29T00:10:55;18.40;56.90
43884;DHT22;29544;52.018;5.810;2022-09-29T00:13:21;18.40;56.90
43884;DHT22;29544;52.018;5.810;2022-09-29T00:15:55;18.40;56.90
43884;DHT22;29544;52.018;5.810;2022-09-29T00:18:21;18.40;56.90
43884;DHT22;29544;52.018;5.810;2022-09-29T00:20:55;18.30;56.90
43884;DHT22;29544;52.018;5.810;2022-09-29T00:23:25;18.30;56.90
43884;DHT22;29544;52.018;5.810;2022-09-29T00:28:29;18.30;56.90
43884;DHT22;29544;52.018;5.810;2022-09-29T00:30:57;18.30;56.90
43884;DHT22;29544;52.018;5.810;2022-09-29T00:33:24;18.30;56.90
43884;DHT22;29544;52.018;5.810;2022-09-29T00:36:17;18.20;56.90
43884;DHT22;29544;52.018;5.810;2022-09-29T00:38:44;18.20;56.90
43884;DHT22;29544;52.018;5.810;2022-09-29T00:41:17;18.20;57.00
43884;DHT22;29544;52.018;5.810;2022-09-29T00:48:49;18.20;57.00
43884;DHT22;29544;52.018;5.810;2022-09-29T00:51:16;18.20;57.00
43884;DHT22;29544;52.018;5.810;2022-09-29T00:53:42;18.10;56.90
43884;DHT22;29544;52.018;5.810;2022-09-29T00:56:11;18.10;56.90
43884;DHT22;29544;52.018;5.810;2022-09-29T00:58:48;18.10;57.00
43884;DHT22;29544;52.018;5.810;2022-09-29T01:01:19;18.10;56.90
43884;DHT22;29544;52.018;5.810;2022-09-29T01:03:46;18.00;56.90
43884;DHT22;29544;52.018;5.810;2022-09-29T01:06:21;18.10;56.90
43884;DHT22;29544;52.018;5.810;2022-09-29T01:09:09;18.00;56.90
43884;DHT22;29544;52.018;5.810;2022-09-29T01:11:35;18.00;56.90
43884;DHT22;29544;52.018;5.810;2022-09-29T01:14:04;18.00;56.90
43884;DHT22;29544;52.018;5.810;2022-09-29T01:16:31;18.00;57.00
43884;DHT22;29544;52.018;5.810;2022-09-29T01:18:58;18.00;57.00
43884;DHT22;29544;52.018;5.810;2022-09-29T01:21:34;17.90;56.90
43884;DHT22;29544;52.018;5.810;2022-09-29T01:32:25;17.80;56.90
43884;DHT22;29544;52.018;5.810;2022-09-29T01:37:48;17.80;56.90
43884;DHT22;29544;52.018;5.810;2022-09-29T01:43:19;17.80;57.00
43884;DHT22;29544;52.018;5.810;2022-09-29T01:46:15;17.70;56.90
43884;DHT22;29544;52.018;5.810;2022-09-29T01:48:47;17.80;57.00
43884;DHT22;29544;52.018;5.810;2022-09-29T01:51:18;17.70;56.90
43884;DHT22;29544;52.018;5.810;2022-09-29T01:53:48;17.70;56.90
43884;DHT22;29544;52.018;5.810;2022-09-29T01:56:20;17.70;57.00
43884;DHT22;29544;52.018;5.810;2022-09-29T01:58:56;17.70;56.90
43884;DHT22;29544;52.018;5.810;2022-09-29T02:01:26;17.70;56.90
43884;DHT22;29544;52.018;5.810;2022-09-29T02:04:01;17.60;56.90
43884;DHT22;29544;52.018;5.810;2022-09-29T02:06:33;17.60;56.90
43884;DHT22;29544;52.018;5.810;2022-09-29T02:09:11;17.60;56.90
43884;DHT22;29544;52.018;5.810;2022-09-29T02:11:39;17.60;56.90
43884;DHT22;29544;52.018;5.810;2022-09-29T02:14:37;17.60;56.90
43884;DHT22;29544;52.018;5.810;2022-09-29T02:17:05;17.60;56.90
43884;DHT22;29544;52.018;5.810;2022-09-29T02:19:36;17.60;56.90
43884;DHT22;29544;52.018;5.810;2022-09-29T02:22:02;17.60;56.90
43884;DHT22;29544;52.018;5.810;2022-09-29T02:24:27;17.50;56.90
43884;DHT22;29544;52.018;5.810;2022-09-29T02:26:53;17.50;56.90
43884;DHT22;29544;52.018;5.810;2022-09-29T02:29:18;17.50;56.90
43884;DHT22;29544;52.018;5.810;2022-09-29T02:31:45;17.50;56.80
43884;DHT22;29544;52.018;5.810;2022-09-29T02:34:15;17.50;56.90
43884;DHT22;29544;52.018;5.810;2022-09-29T02:45:29;17.40;56.80
43884;DHT22;29544;52.018;5.810;2022-09-29T02:53:26;17.40;56.90
43884;DHT22;29544;52.018;5.810;2022-09-29T02:58:29;17.40;56.80
43884;DHT22;29544;52.018;5.810;2022-09-29T03:00:58;17.30;56.80
43884;DHT22;29544;52.018;5.810;2022-09-29T03:03:24;17.30;56.80
43884;DHT22;29544;52.018;5.810;2022-09-29T03:05:50;17.30;56.80
43884;DHT22;29544;52.018;5.810;2022-09-29T03:08:16;17.30;56.80
43884;DHT22;29544;52.018;5.810;2022-09-29T03:10:41;17.30;56.80
43884;DHT22;29544;52.018;5.810;2022-09-29T03:13:07;17.30;56.80
43884;DHT22;29544;52.018;5.810;2022-09-29T03:15:32;17.30;56.80
43884;DHT22;29544;52.018;5.810;2022-09-29T03:17:58;17.20;56.70
43884;DHT22;29544;52.018;5.810;2022-09-29T03:20:24;17.30;56.80
43884;DHT22;29544;52.018;5.810;2022-09-29T03:22:54;17.10;56.70
43884;DHT22;29544;52.018;5.810;2022-09-29T03:25:20;17.20;56.70
43884;DHT22;29544;52.018;5.810;2022-09-29T03:27:47;17.20;56.80
43884;DHT22;29544;52.018;5.810;2022-09-29T03:30:14;17.20;56.80
43884;DHT22;29544;52.018;5.810;2022-09-29T03:32:42;17.20;56.80
43884;DHT22;29544;52.018;5.810;2022-09-29T03:35:08;17.20;56.70
43884;DHT22;29544;52.018;5.810;2022-09-29T03:37:34;17.20;56.80
43884;DHT22;29544;52.018;5.810;2022-09-29T03:39:59;17.10;56.70
43884;DHT22;29544;52.018;5.810;2022-09-29T03:42:26;17.20;56.80
43884;DHT22;29544;52.018;5.810;2022-09-29T03:44:53;17.10;56.70
43884;DHT22;29544;52.018;5.810;2022-09-29T03:47:18;17.10;56.80
43884;DHT22;29544;52.018;5.810;2022-09-29T03:49:44;17.10;56.70
43884;DHT22;29544;52.018;5.810;2022-09-29T03:52:09;17.10;56.70
43884;DHT22;29544;52.018;5.810;2022-09-29T03:54:35;17.10;56.70
43884;DHT22;29544;52.018;5.810;2022-09-29T03:57:00;17.10;56.70
43884;DHT22;29544;52.018;5.810;2022-09-29T03:59:26;17.10;56.80
43884;DHT22;29544;52.018;5.810;2022-09-29T04:01:51;17.10;56.70
43884;DHT22;29544;52.018;5.810;2022-09-29T04:04:17;17.00;56.70
43884;DHT22;29544;52.018;5.810;2022-09-29T04:06:43;17.00;56.70
43884;DHT22;29544;52.018;5.810;2022-09-29T04:09:08;17.00;56.70
43884;DHT22;29544;52.018;5.810;2022-09-29T04:11:34;17.00;56.60
43884;DHT22;29544;52.018;5.810;2022-09-29T04:13:59;17.00;56.70
43884;DHT22;29544;52.018;5.810;2022-09-29T04:16:25;17.00;56.70
43884;DHT22;29544;52.018;5.810;2022-09-29T04:18:51;17.00;56.70
43884;DHT22;29544;52.018;5.810;2022-09-29T04:21:16;16.90;56.70
43884;DHT22;29544;52.018;5.810;2022-09-29T04:23:42;16.90;56.60
43884;DHT22;29544;52.018;5.810;2022-09-29T04:26:07;16.90;56.60
43884;DHT22;29544;52.018;5.810;2022-09-29T04:28:34;16.90;56.60
43884;DHT22;29544;52.018;5.810;2022-09-29T04:31:01;16.90;56.70
43884;DHT22;29544;52.018;5.810;2022-09-29T04:33:27;16.90;56.60
43884;DHT22;29544;52.018;5.810;2022-09-29T04:35:54;16.80;56.50
43884;DHT22;29544;52.018;5.810;2022-09-29T04:38:20;16.80;56.60
43884;DHT22;29544;52.018;5.810;2022-09-29T04:40:46;16.80;56.60
43884;DHT22;29544;52.018;5.810;2022-09-29T04:43:12;16.80;56.60
43884;DHT22;29544;52.018;5.810;2022-09-29T04:45:38;16.80;56.60
43884;DHT22;29544;52.018;5.810;2022-09-29T04:48:04;16.80;56.60
43884;DHT22;29544;52.018;5.810;2022-09-29T04:50:30;16.80;56.60
43884;DHT22;29544;52.018;5.810;2022-09-29T04:52:55;16.80;56.60
43884;DHT22;29544;52.018;5.810;2022-09-29T04:55:21;16.80;56.60
43884;DHT22;29544;52.018;5.810;2022-09-29T04:57:47;16.80;56.60
43884;DHT22;29544;52.018;5.810;2022-09-29T05:00:14;16.80;56.50
43884;DHT22;29544;52.018;5.810;2022-09-29T05:02:40;16.70;56.50
43884;DHT22;29544;52.018;5.810;2022-09-29T05:05:06;16.70;56.50
43884;DHT22;29544;52.018;5.810;2022-09-29T05:07:34;16.70;56.40
43884;DHT22;29544;52.018;5.810;2022-09-29T05:09:59;16.70;56.50
43884;DHT22;29544;52.018;5.810;2022-09-29T05:12:25;16.70;56.50
43884;DHT22;29544;52.018;5.810;2022-09-29T05:14:51;16.70;56.50
43884;DHT22;29544;52.018;5.810;2022-09-29T05:17:16;16.70;56.50
43884;DHT22;29544;52.018;5.810;2022-09-29T05:19:42;16.70;56.50
43884;DHT22;29544;52.018;5.810;2022-09-29T05:22:07;16.60;56.50
43884;DHT22;29544;52.018;5.810;2022-09-29T05:24:33;16.70;56.50
43884;DHT22;29544;52.018;5.810;2022-09-29T05:26:59;16.60;56.50
43884;DHT22;29544;52.018;5.810;2022-09-29T05:29:24;16.60;56.40
43884;DHT22;29544;52.018;5.810;2022-09-29T05:31:50;16.60;56.40
43884;DHT22;29544;52.018;5.810;2022-09-29T05:34:16;16.60;56.40
43884;DHT22;29544;52.018;5.810;2022-09-29T05:36:42;16.60;56.40
43884;DHT22;29544;52.018;5.810;2022-09-29T05:39:08;16.60;56.50
43884;DHT22;29544;52.018;5.810;2022-09-29T05:41:34;16.60;56.50
43884;DHT22;29544;52.018;5.810;2022-09-29T05:44:00;16.60;56.50
43884;DHT22;29544;52.018;5.810;2022-09-29T05:46:26;16.60;56.50
43884;DHT22;29544;52.018;5.810;2022-09-29T05:48:51;16.50;56.40
43884;DHT22;29544;52.018;5.810;2022-09-29T05:51:19;16.50;56.40
43884;DHT22;29544;52.018;5.810;2022-09-29T05:53:45;16.50;56.40
43884;DHT22;29544;52.018;5.810;2022-09-29T05:56:20;16.50;56.50
43884;DHT22;29544;52.018;5.810;2022-09-29T05:58:45;16.50;56.50
43884;DHT22;29544;52.018;5.810;2022-09-29T06:01:14;16.50;56.40
43884;DHT22;29544;52.018;5.810;2022-09-29T06:03:40;16.50;56.50
43884;DHT22;29544;52.018;5.810;2022-09-29T06:08:38;16.50;56.40
43884;DHT22;29544;52.018;5.810;2022-09-29T06:11:14;16.50;56.40
43884;DHT22;29544;52.018;5.810;2022-09-29T06:13:42;16.50;56.50
43884;DHT22;29544;52.018;5.810;2022-09-29T06:16:08;16.40;56.40
43884;DHT22;29544;52.018;5.810;2022-09-29T06:18:34;16.40;56.40
43884;DHT22;29544;52.018;5.810;2022-09-29T06:21:14;16.40;56.40
43884;DHT22;29544;52.018;5.810;2022-09-29T06:23:40;16.40;56.40
43884;DHT22;29544;52.018;5.810;2022-09-29T06:26:09;16.40;56.40
43884;DHT22;29544;52.018;5.810;2022-09-29T06:28:35;16.40;56.40
43884;DHT22;29544;52.018;5.810;2022-09-29T06:31:03;16.40;56.40
43884;DHT22;29544;52.018;5.810;2022-09-29T06:33:32;16.40;56.50
43884;DHT22;29544;52.018;5.810;2022-09-29T06:35:58;16.40;56.40
43884;DHT22;29544;52.018;5.810;2022-09-29T06:38:46;16.40;56.50
43884;DHT22;29544;52.018;5.810;2022-09-29T06:41:11;16.40;56.50
43884;DHT22;29544;52.018;5.810;2022-09-29T06:43:40;16.40;56.50
43884;DHT22;29544;52.018;5.810;2022-09-29T06:46:05;16.40;56.50
43884;DHT22;29544;52.018;5.810;2022-09-29T06:48:31;16.30;56.40
43884;DHT22;29544;52.018;5.810;2022-09-29T06:50:56;16.30;56.20
43884;DHT22;29544;52.018;5.810;2022-09-29T06:53:22;16.30;56.40
43884;DHT22;29544;52.018;5.810;2022-09-29T06:55:55;16.30;56.70
43884;DHT22;29544;52.018;5.810;2022-09-29T06:58:25;16.40;57.00
43884;DHT22;29544;52.018;5.810;2022-09-29T07:00:51;16.40;57.00
43884;DHT22;29544;52.018;5.810;2022-09-29T07:03:16;16.50;57.20
43884;DHT22;29544;52.018;5.810;2022-09-29T07:05:42;16.60;57.20
43884;DHT22;29544;52.018;5.810;2022-09-29T07:08:08;16.60;57.10
43884;DHT22;29544;52.018;5.810;2022-09-29T07:10:34;16.70;57.10
43884;DHT22;29544;52.018;5.810;2022-09-29T07:12:59;16.80;57.00
43884;DHT22;29544;52.018;5.810;2022-09-29T07:15:25;16.80;56.90
43884;DHT22;29544;52.018;5.810;2022-09-29T07:17:58;16.90;56.80
43884;DHT22;29544;52.018;5.810;2022-09-29T07:20:25;16.90;56.70
43884;DHT22;29544;52.018;5.810;2022-09-29T07:22:51;17.00;56.60
43884;DHT22;29544;52.018;5.810;2022-09-29T07:25:16;17.00;56.40
43884;DHT22;29544;52.018;5.810;2022-09-29T07:27:42;17.10;56.40
43884;DHT22;29544;52.018;5.810;2022-09-29T07:30:08;17.00;56.30
43884;DHT22;29544;52.018;5.810;2022-09-29T07:32:34;17.10;56.20
43884;DHT22;29544;52.018;5.810;2022-09-29T07:34:59;17.10;56.10
43884;DHT22;29544;52.018;5.810;2022-09-29T07:37:26;17.10;56.10
43884;DHT22;29544;52.018;5.810;2022-09-29T07:39:51;17.20;56.10
43884;DHT22;29544;52.018;5.810;2022-09-29T07:42:18;17.20;56.00
43884;DHT22;29544;52.018;5.810;2022-09-29T07:44:44;17.20;56.00
43884;DHT22;29544;52.018;5.810;2022-09-29T07:47:09;17.20;56.00
43884;DHT22;29544;52.018;5.810;2022-09-29T07:49:35;17.20;56.00
43884;DHT22;29544;52.018;5.810;2022-09-29T07:52:00;17.20;56.00
43884;DHT22;29544;52.018;5.810;2022-09-29T07:54:26;17.20;56.00
43884;DHT22;29544;52.018;5.810;2022-09-29T07:56:51;17.30;56.00
43884;DHT22;29544;52.018;5.810;2022-09-29T07:59:17;17.30;56.00
43884;DHT22;29544;52.018;5.810;2022-09-29T08:01:42;17.30;55.90
43884;DHT22;29544;52.018;5.810;2022-09-29T08:04:08;17.20;55.80
43884;DHT22;29544;52.018;5.810;2022-09-29T08:06:33;17.20;55.80
43884;DHT22;29544;52.018;5.810;2022-09-29T08:09:00;17.30;55.90
43884;DHT22;29544;52.018;5.810;2022-09-29T08:11:26;17.30;55.90
43884;DHT22;29544;52.018;5.810;2022-09-29T08:13:52;17.30;55.90
43884;DHT22;29544;52.018;5.810;2022-09-29T08:16:19;17.30;55.90
43884;DHT22;29544;52.018;5.810;2022-09-29T08:18:44;17.30;56.50
43884;DHT22;29544;52.018;5.810;2022-09-29T08:21:11;17.30;56.00
43884;DHT22;29544;52.018;5.810;2022-09-29T08:23:39;17.20;55.90
43884;DHT22;29544;52.018;5.810;2022-09-29T08:26:07;17.20;56.00
43884;DHT22;29544;52.018;5.810;2022-09-29T08:28:35;17.20;56.00
43884;DHT22;29544;52.018;5.810;2022-09-29T08:31:09;17.30;56.10
43884;DHT22;29544;52.018;5.810;2022-09-29T08:33:36;17.20;56.00
43884;DHT22;29544;52.018;5.810;2022-09-29T08:36:03;17.20;56.00
43884;DHT22;29544;52.018;5.810;2022-09-29T08:38:31;17.20;56.10
43884;DHT22;29544;52.018;5.810;2022-09-29T08:41:02;17.20;56.10
43884;DHT22;29544;52.018;5.810;2022-09-29T08:43:37;17.20;56.10
43884;DHT22;29544;52.018;5.810;2022-09-29T08:46:12;17.20;56.10
43884;DHT22;29544;52.018;5.810;2022-09-29T08:48:46;17.10;56.10
43884;DHT22;29544;52.018;5.810;2022-09-29T08:53:48;17.10;56.10
43884;DHT22;29544;52.018;5.810;2022-09-29T08:56:16;17.10;56.10
43884;DHT22;29544;52.018;5.810;2022-09-29T08:58:42;17.10;56.20
43884;DHT22;29544;52.018;5.810;2022-09-29T09:06:12;17.10;56.20
43884;DHT22;29544;52.018;5.810;2022-09-29T09:14:44;17.10;56.30
43884;DHT22;29544;52.018;5.810;2022-09-29T09:20:25;17.00;56.30
43884;DHT22;29544;52.018;5.810;2022-09-29T09:22:59;17.00;56.30
43884;DHT22;29544;52.018;5.810;2022-09-29T09:25:31;17.00;56.40
43884;DHT22;29544;52.018;5.810;2022-09-29T09:28:18;17.00;56.40
43884;DHT22;29544;52.018;5.810;2022-09-29T09:33:25;17.10;56.40
43884;DHT22;29544;52.018;5.810;2022-09-29T09:35:57;17.00;56.40
43884;DHT22;29544;52.018;5.810;2022-09-29T09:38:55;17.10;56.40
43884;DHT22;29544;52.018;5.810;2022-09-29T09:41:21;17.00;56.40
43884;DHT22;29544;52.018;5.810;2022-09-29T09:43:52;17.00;56.40
43884;DHT22;29544;52.018;5.810;2022-09-29T09:46:36;17.00;56.40
43884;DHT22;29544;52.018;5.810;2022-09-29T09:49:17;17.10;56.50
43884;DHT22;29544;52.018;5.810;2022-09-29T09:52:09;17.00;56.50
43884;DHT22;29544;52.018;5.810;2022-09-29T09:54:45;17.10;56.60
43884;DHT22;29544;52.018;5.810;2022-09-29T10:02:50;17.10;56.70
43884;DHT22;29544;52.018;5.810;2022-09-29T10:05:21;17.10;56.70
43884;DHT22;29544;52.018;5.810;2022-09-29T10:07:49;17.10;56.70
43884;DHT22;29544;52.018;5.810;2022-09-29T10:10:19;17.10;57.00
43884;DHT22;29544;52.018;5.810;2022-09-29T10:12:48;17.10;57.00
43884;DHT22;29544;52.018;5.810;2022-09-29T10:15:37;17.10;56.90
43884;DHT22;29544;52.018;5.810;2022-09-29T10:20:39;17.20;57.00
43884;DHT22;29544;52.018;5.810;2022-09-29T10:23:38;17.20;57.10
43884;DHT22;29544;52.018;5.810;2022-09-29T10:26:10;17.30;57.50
43884;DHT22;29544;52.018;5.810;2022-09-29T10:28:48;17.40;57.60
43884;DHT22;29544;52.018;5.810;2022-09-29T10:31:26;17.40;57.60
43884;DHT22;29544;52.018;5.810;2022-09-29T10:34:18;17.40;57.90
43884;DHT22;29544;52.018;5.810;2022-09-29T10:37:03;17.40;58.10
43884;DHT22;29544;52.018;5.810;2022-09-29T10:39:37;17.50;58.60
43884;DHT22;29544;52.018;5.810;2022-09-29T10:48:10;17.60;58.70
43884;DHT22;29544;52.018;5.810;2022-09-29T10:50:37;17.60;58.80
43884;DHT22;29544;52.018;5.810;2022-09-29T10:53:29;17.70;58.80
43884;DHT22;29544;52.018;5.810;2022-09-29T10:55:58;17.70;58.70
43884;DHT22;29544;52.018;5.810;2022-09-29T10:58:51;17.80;58.60
43884;DHT22;29544;52.018;5.810;2022-09-29T11:01:18;17.80;58.40
43884;DHT22;29544;52.018;5.810;2022-09-29T11:06:13;17.80;58.30
43884;DHT22;29544;52.018;5.810;2022-09-29T11:08:59;17.80;58.20
43884;DHT22;29544;52.018;5.810;2022-09-29T11:13:52;17.80;58.10
43884;DHT22;29544;52.018;5.810;2022-09-29T11:18:50;17.90;58.10
43884;DHT22;29544;52.018;5.810;2022-09-29T11:29:45;18.00;57.90
43884;DHT22;29544;52.018;5.810;2022-09-29T11:32:36;18.00;57.90
43884;DHT22;29544;52.018;5.810;2022-09-29T11:43:54;18.30;57.80
43884;DHT22;29544;52.018;5.810;2022-09-29T11:46:34;18.30;57.70
43884;DHT22;29544;52.018;5.810;2022-09-29T11:49:30;18.40;57.80
43884;DHT22;29544;52.018;5.810;2022-09-29T11:55:02;18.40;57.80
43884;DHT22;29544;52.018;5.810;2022-09-29T11:57:42;18.40;57.80
43884;DHT22;29544;52.018;5.810;2022-09-29T12:00:14;18.40;57.80
43884;DHT22;29544;52.018;5.810;2022-09-29T12:08:38;18.40;57.90
43884;DHT22;29544;52.018;5.810;2022-09-29T12:14:13;18.40;57.80
43884;DHT22;29544;52.018;5.810;2022-09-29T12:17:05;18.50;57.90
43884;DHT22;29544;52.018;5.810;2022-09-29T12:19:37;18.50;57.90
43884;DHT22;29544;52.018;5.810;2022-09-29T12:22:08;18.50;57.70
43884;DHT22;29544;52.018;5.810;2022-09-29T12:27:06;18.50;57.70
43884;DHT22;29544;52.018;5.810;2022-09-29T12:29:47;18.50;57.60
43884;DHT22;29544;52.018;5.810;2022-09-29T12:32:22;18.50;57.60
43884;DHT22;29544;52.018;5.810;2022-09-29T12:34:50;18.50;57.50
43884;DHT22;29544;52.018;5.810;2022-09-29T12:37:38;18.50;57.50
43884;DHT22;29544;52.018;5.810;2022-09-29T12:40:11;18.50;57.50
43884;DHT22;29544;52.018;5.810;2022-09-29T12:42:54;18.50;57.50
43884;DHT22;29544;52.018;5.810;2022-09-29T12:48:18;18.60;57.50
43884;DHT22;29544;52.018;5.810;2022-09-29T12:51:02;18.60;57.50
43884;DHT22;29544;52.018;5.810;2022-09-29T12:53:38;18.60;57.40
43884;DHT22;29544;52.018;5.810;2022-09-29T12:56:32;18.60;57.30
43884;DHT22;29544;52.018;5.810;2022-09-29T12:59:12;18.70;57.40
43884;DHT22;29544;52.018;5.810;2022-09-29T13:01:42;18.70;57.30
43884;DHT22;29544;52.018;5.810;2022-09-29T13:04:33;18.70;57.30
43884;DHT22;29544;52.018;5.810;2022-09-29T13:12:45;18.70;57.30
43884;DHT22;29544;52.018;5.810;2022-09-29T13:15:26;18.70;57.20
43884;DHT22;29544;52.018;5.810;2022-09-29T13:23:51;18.70;57.20
43884;DHT22;29544;52.018;5.810;2022-09-29T13:29:04;18.80;57.20
43884;DHT22;29544;52.018;5.810;2022-09-29T13:31:36;18.80;57.10
43884;DHT22;29544;52.018;5.810;2022-09-29T13:34:03;18.80;57.10
43884;DHT22;29544;52.018;5.810;2022-09-29T13:36:31;18.80;57.10
43884;DHT22;29544;52.018;5.810;2022-09-29T13:39:02;18.80;57.10
43884;DHT22;29544;52.018;5.810;2022-09-29T13:44:16;18.90;57.20
43884;DHT22;29544;52.018;5.810;2022-09-29T13:46:43;18.90;57.10
43884;DHT22;29544;52.018;5.810;2022-09-29T13:59:59;18.90;57.00
43884;DHT22;29544;52.018;5.810;2022-09-29T14:02:39;18.90;56.90
43884;DHT22;29544;52.018;5.810;2022-09-29T14:10:22;18.90;56.90
43884;DHT22;29544;52.018;5.810;2022-09-29T14:13:04;18.90;56.80
43884;DHT22;29544;52.018;5.810;2022-09-29T14:15:35;18.90;56.80
43884;DHT22;29544;52.018;5.810;2022-09-29T14:18:03;18.90;56.90
43884;DHT22;29544;52.018;5.810;2022-09-29T14:20:32;18.90;56.90
43884;DHT22;29544;52.018;5.810;2022-09-29T14:23:03;18.90;56.80
43884;DHT22;29544;52.018;5.810;2022-09-29T14:25:32;18.90;56.80
43884;DHT22;29544;52.018;5.810;2022-09-29T14:28:08;18.90;56.80
43884;DHT22;29544;52.018;5.810;2022-09-29T14:30:41;18.90;56.80
43884;DHT22;29544;52.018;5.810;2022-09-29T14:33:18;18.90;56.70
43884;DHT22;29544;52.018;5.810;2022-09-29T14:43:47;19.00;57.10
43884;DHT22;29544;52.018;5.810;2022-09-29T14:49:24;19.10;57.30
43884;DHT22;29544;52.018;5.810;2022-09-29T15:01:25;19.20;57.50
43884;DHT22;29544;52.018;5.810;2022-09-29T15:03:54;19.20;57.60
43884;DHT22;29544;52.018;5.810;2022-09-29T15:06:26;19.20;57.70
43884;DHT22;29544;52.018;5.810;2022-09-29T15:09:12;19.30;57.70
43884;DHT22;29544;52.018;5.810;2022-09-29T15:11:52;19.30;57.50
43884;DHT22;29544;52.018;5.810;2022-09-29T15:14:27;19.30;57.50
43884;DHT22;29544;52.018;5.810;2022-09-29T15:17:14;19.40;57.50
43884;DHT22;29544;52.018;5.810;2022-09-29T15:20:02;19.40;57.40
43884;DHT22;29544;52.018;5.810;2022-09-29T15:22:52;19.50;57.40
43884;DHT22;29544;52.018;5.810;2022-09-29T15:25:34;19.50;57.30
43884;DHT22;29544;52.018;5.810;2022-09-29T15:28:05;19.50;57.20
43884;DHT22;29544;52.018;5.810;2022-09-29T15:30:35;19.60;57.20
43884;DHT22;29544;52.018;5.810;2022-09-29T15:33:20;19.60;57.10
43884;DHT22;29544;52.018;5.810;2022-09-29T15:35:51;19.60;57.10
43884;DHT22;29544;52.018;5.810;2022-09-29T15:40:52;19.60;57.00
43884;DHT22;29544;52.018;5.810;2022-09-29T15:43:24;19.70;57.10
43884;DHT22;29544;52.018;5.810;2022-09-29T15:46:02;19.60;57.20
43884;DHT22;29544;52.018;5.810;2022-09-29T15:48:36;19.60;57.30
43884;DHT22;29544;52.018;5.810;2022-09-29T15:51:02;19.60;57.40
43884;DHT22;29544;52.018;5.810;2022-09-29T15:53:28;19.70;57.60
43884;DHT22;29544;52.018;5.810;2022-09-29T15:55:55;19.70;57.60
43884;DHT22;29544;52.018;5.810;2022-09-29T16:00:59;19.70;57.70
43884;DHT22;29544;52.018;5.810;2022-09-29T16:03:36;19.70;57.70
43884;DHT22;29544;52.018;5.810;2022-09-29T16:06:20;19.70;57.80
43884;DHT22;29544;52.018;5.810;2022-09-29T16:08:50;19.80;57.90
43884;DHT22;29544;52.018;5.810;2022-09-29T16:11:24;19.80;58.00
43884;DHT22;29544;52.018;5.810;2022-09-29T16:13:56;19.80;58.00
43884;DHT22;29544;52.018;5.810;2022-09-29T16:16:29;19.90;58.10
43884;DHT22;29544;52.018;5.810;2022-09-29T16:18:59;19.90;58.10
43884;DHT22;29544;52.018;5.810;2022-09-29T16:21:32;19.90;58.20
43884;DHT22;29544;52.018;5.810;2022-09-29T16:24:06;20.00;58.20
43884;DHT22;29544;52.018;5.810;2022-09-29T16:26:35;20.00;58.20
43884;DHT22;29544;52.018;5.810;2022-09-29T16:31:39;20.00;58.10
43884;DHT22;29544;52.018;5.810;2022-09-29T16:37:02;20.10;58.10
43884;DHT22;29544;52.018;5.810;2022-09-29T16:39:32;20.10;58.80
43884;DHT22;29544;52.018;5.810;2022-09-29T16:42:01;20.10;58.20
43884;DHT22;29544;52.018;5.810;2022-09-29T16:44:34;20.20;58.20
43884;DHT22;29544;52.018;5.810;2022-09-29T16:47:13;20.10;58.10
43884;DHT22;29544;52.018;5.810;2022-09-29T16:49:59;20.10;58.10
43884;DHT22;29544;52.018;5.810;2022-09-29T16:52:49;20.10;58.10
43884;DHT22;29544;52.018;5.810;2022-09-29T17:00:28;20.20;58.10
43884;DHT22;29544;52.018;5.810;2022-09-29T17:02:55;20.20;58.10
43884;DHT22;29544;52.018;5.810;2022-09-29T17:05:23;20.20;58.10
43884;DHT22;29544;52.018;5.810;2022-09-29T17:07:49;20.30;58.10
43884;DHT22;29544;52.018;5.810;2022-09-29T17:10:18;20.20;58.10
43884;DHT22;29544;52.018;5.810;2022-09-29T17:12:44;20.20;58.10
43884;DHT22;29544;52.018;5.810;2022-09-29T17:15:13;20.30;58.10
43884;DHT22;29544;52.018;5.810;2022-09-29T17:17:40;20.30;58.10
43884;DHT22;29544;52.018;5.810;2022-09-29T17:20:12;20.30;58.10
43884;DHT22;29544;52.018;5.810;2022-09-29T17:22:38;20.30;58.00
43884;DHT22;29544;52.018;5.810;2022-09-29T17:25:04;20.30;58.10
43884;DHT22;29544;52.018;5.810;2022-09-29T17:27:30;20.30;58.00
43884;DHT22;29544;52.018;5.810;2022-09-29T17:30:17;20.30;57.90
43884;DHT22;29544;52.018;5.810;2022-09-29T17:32:46;20.30;58.00
43884;DHT22;29544;52.018;5.810;2022-09-29T17:35:16;20.30;58.00
43884;DHT22;29544;52.018;5.810;2022-09-29T17:37:43;20.40;57.90
43884;DHT22;29544;52.018;5.810;2022-09-29T17:40:19;20.30;58.00
43884;DHT22;29544;52.018;5.810;2022-09-29T17:42:47;20.40;57.90
43884;DHT22;29544;52.018;5.810;2022-09-29T17:45:14;20.40;57.80
43884;DHT22;29544;52.018;5.810;2022-09-29T17:47:44;20.40;57.90
43884;DHT22;29544;52.018;5.810;2022-09-29T17:50:26;20.40;57.70
43884;DHT22;29544;52.018;5.810;2022-09-29T17:52:52;20.50;57.80
43884;DHT22;29544;52.018;5.810;2022-09-29T17:55:18;20.50;57.90
43884;DHT22;29544;52.018;5.810;2022-09-29T17:57:48;20.50;57.90
43884;DHT22;29544;52.018;5.810;2022-09-29T18:00:20;20.50;57.90
43884;DHT22;29544;52.018;5.810;2022-09-29T18:02:47;20.50;57.90
43884;DHT22;29544;52.018;5.810;2022-09-29T18:05:14;20.50;57.80
43884;DHT22;29544;52.018;5.810;2022-09-29T18:07:40;20.50;57.80
43884;DHT22;29544;52.018;5.810;2022-09-29T18:10:24;20.50;57.70
43884;DHT22;29544;52.018;5.810;2022-09-29T18:12:50;20.50;57.70
43884;DHT22;29544;52.018;5.810;2022-09-29T18:15:15;20.50;57.70
43884;DHT22;29544;52.018;5.810;2022-09-29T18:17:42;20.50;57.70
43884;DHT22;29544;52.018;5.810;2022-09-29T18:20:17;20.50;57.60
43884;DHT22;29544;52.018;5.810;2022-09-29T18:22:43;20.50;57.50
43884;DHT22;29544;52.018;5.810;2022-09-29T18:25:11;20.50;57.60
43884;DHT22;29544;52.018;5.810;2022-09-29T18:27:36;20.40;57.60
43884;DHT22;29544;52.018;5.810;2022-09-29T18:30:06;20.40;57.70
43884;DHT22;29544;52.018;5.810;2022-09-29T18:32:35;20.50;57.70
43884;DHT22;29544;52.018;5.810;2022-09-29T18:35:01;20.40;57.70
43884;DHT22;29544;52.018;5.810;2022-09-29T18:37:27;20.40;57.70
43884;DHT22;29544;52.018;5.810;2022-09-29T18:39:52;20.40;57.60
43884;DHT22;29544;52.018;5.810;2022-09-29T18:42:18;20.40;57.70
43884;DHT22;29544;52.018;5.810;2022-09-29T18:44:43;20.40;57.70
43884;DHT22;29544;52.018;5.810;2022-09-29T18:47:10;20.40;57.70
43884;DHT22;29544;52.018;5.810;2022-09-29T18:49:37;20.40;57.70
43884;DHT22;29544;52.018;5.810;2022-09-29T18:52:02;20.40;57.80
43884;DHT22;29544;52.018;5.810;2022-09-29T18:54:28;20.30;57.70
43884;DHT22;29544;52.018;5.810;2022-09-29T18:56:54;20.40;57.70